createdAt,value
2022-12-20T00:02:55.926Z,101143.84
2022-12-20T00:06:23.952Z,101141.48
2022-12-20T00:09:50.497Z,101144.57
2022-12-20T00:13:17.202Z,101146.69
2022-12-20T00:16:43.996Z,101150.04
2022-12-20T00:20:12.841Z,101147.22
2022-12-20T00:23:40.305Z,101142.19
2022-12-20T00:27:06.850Z,101136.19
2022-12-20T00:30:33.525Z,101128.23
2022-12-20T00:34:01.814Z,101121.77
2022-12-20T00:37:29.280Z,101120.84
2022-12-20T00:41:04.106Z,101130.64
2022-12-20T00:44:30.807Z,101141.36
2022-12-20T00:47:57.621Z,101143.70
2022-12-20T00:51:27.527Z,101137.96
2022-12-20T00:54:54.423Z,101125.89
2022-12-20T00:58:21.762Z,101132.35
2022-12-20T01:01:50.442Z,101127.79
2022-12-20T01:05:20.082Z,101133.02
2022-12-20T01:08:47.220Z,101122.45
2022-12-20T01:12:13.735Z,101112.31
2022-12-20T01:15:40.295Z,101118.55
2022-12-20T01:19:08.242Z,101115.74
2022-12-20T01:22:34.831Z,101105.58
2022-12-20T01:26:02.806Z,101099.58
2022-12-20T01:29:29.331Z,101099.91
2022-12-20T01:32:56.371Z,101099.48
2022-12-20T01:36:26.202Z,101102.88
2022-12-20T01:39:53.116Z,101099.63
2022-12-20T01:43:21.221Z,101091.95
2022-12-20T01:46:49.723Z,101094.46
2022-12-20T01:50:16.239Z,101093.03
2022-12-20T01:53:43.010Z,101084.32
2022-12-20T01:57:13.690Z,101071.30
2022-12-20T02:00:40.702Z,101061.34
2022-12-20T02:04:07.382Z,101050.38
2022-12-20T02:07:36.213Z,101051.29
2022-12-20T02:11:12.032Z,101046.38
2022-12-20T02:15:00.609Z,101050.52
2022-12-20T02:18:32.557Z,101053.11
2022-12-20T02:22:15.236Z,101049.35
2022-12-20T02:26:02.926Z,101052.02
2022-12-20T02:29:37.801Z,101051.60
2022-12-20T02:33:08.456Z,101053.71
2022-12-20T02:36:35.329Z,101042.05
2022-12-20T02:40:02.713Z,101042.25
2022-12-20T02:43:49.751Z,101038.36
2022-12-20T02:47:21.396Z,101043.42
2022-12-20T02:50:54.058Z,101040.61
2022-12-20T02:54:21.270Z,101043.80
2022-12-20T02:58:00.316Z,101049.99
2022-12-20T03:01:29.154Z,101048.30
2022-12-20T03:04:56.831Z,101046.54
2022-12-20T03:08:24.471Z,101042.23
2022-12-20T03:11:51.741Z,101040.79
2022-12-20T03:15:18.749Z,101034.58
2022-12-20T03:18:48.140Z,101041.23
2022-12-20T03:22:15.445Z,101045.73
2022-12-20T03:25:42.161Z,101044.46
2022-12-20T03:29:11.022Z,101046.11
2022-12-20T03:32:38.169Z,101047.79
2022-12-20T03:36:05.953Z,101046.35
2022-12-20T03:39:32.871Z,101044.54
2022-12-20T03:43:00.124Z,101041.89
2022-12-20T03:46:26.857Z,101039.42
2022-12-20T03:49:54.297Z,101043.01
2022-12-20T03:53:21.411Z,101044.81
2022-12-20T03:56:48.697Z,101043.52
2022-12-20T04:00:18.101Z,101041.36
2022-12-20T04:03:46.239Z,101030.45
2022-12-20T04:07:13.244Z,101030.89
2022-12-20T04:10:56.115Z,101025.27
2022-12-20T04:14:24.237Z,101022.96
2022-12-20T04:17:51.441Z,101027.73
2022-12-20T04:21:24.784Z,101035.89
2022-12-20T04:24:53.809Z,101034.42
2022-12-20T04:28:31.650Z,101031.55
2022-12-20T04:31:58.673Z,101032.67
2022-12-20T04:35:25.362Z,101042.71
2022-12-20T04:38:52.798Z,101044.30
2022-12-20T04:42:20.208Z,101045.88
2022-12-20T04:45:48.353Z,101053.14
2022-12-20T04:49:16.620Z,101053.02
2022-12-20T04:53:01.103Z,101048.89
2022-12-20T04:56:30.043Z,101048.90
2022-12-20T05:00:01.886Z,101046.01
2022-12-20T05:03:29.615Z,101037.06
2022-12-20T05:06:56.813Z,101035.20
2022-12-20T05:10:24.124Z,101033.52
2022-12-20T05:13:50.971Z,101026.90
2022-12-20T05:17:19.229Z,101018.16
2022-12-20T05:20:46.240Z,101012.03
2022-12-20T05:24:31.100Z,101014.38
2022-12-20T05:28:11.679Z,101016.18
2022-12-20T05:31:38.571Z,101017.05
2022-12-20T05:35:06.251Z,101011.52
2022-12-20T05:38:34.186Z,101008.66
2022-12-20T05:42:01.978Z,101009.25
2022-12-20T05:45:28.715Z,101011.66
2022-12-20T05:49:00.894Z,101014.30
2022-12-20T05:52:28.195Z,101018.92
2022-12-20T05:55:56.196Z,101023.20
2022-12-20T05:59:27.130Z,101026.40
2022-12-20T06:02:54.487Z,101030.26
2022-12-20T06:06:21.533Z,101036.60
2022-12-20T06:09:48.375Z,101033.38
2022-12-20T06:13:17.639Z,101034.64
2022-12-20T06:16:44.278Z,101039.42
2022-12-20T06:20:13.278Z,101041.05
2022-12-20T06:23:42.450Z,101038.44
2022-12-20T06:27:11.189Z,101042.60
2022-12-20T06:30:38.366Z,101038.95
2022-12-20T06:34:13.999Z,101042.17
2022-12-20T06:37:41.988Z,101046.35
2022-12-20T06:41:08.885Z,101045.76
2022-12-20T06:44:36.103Z,101045.36
2022-12-20T06:48:02.857Z,101043.59
2022-12-20T06:51:31.027Z,101042.87
2022-12-20T06:54:58.777Z,101041.77
2022-12-20T06:58:26.058Z,101042.59
2022-12-20T07:01:52.850Z,101038.54
2022-12-20T07:05:19.622Z,101036.89
2022-12-20T07:08:46.365Z,101032.59
2022-12-20T07:12:13.141Z,101031.23
2022-12-20T07:15:40.156Z,101034.35
2022-12-20T07:19:06.752Z,101034.33
2022-12-20T07:22:34.629Z,101035.90
2022-12-20T07:26:04.133Z,101033.75
2022-12-20T07:29:31.098Z,101029.66
2022-12-20T07:32:57.784Z,101028.49
2022-12-20T07:36:24.612Z,101028.45
2022-12-20T07:39:51.511Z,101034.33
2022-12-20T07:43:18.097Z,101038.70
2022-12-20T07:46:44.730Z,101039.89
2022-12-20T07:50:13.604Z,101043.95
2022-12-20T07:53:46.191Z,101044.41
2022-12-20T07:57:17.959Z,101044.52
2022-12-20T08:00:45.520Z,101045.02
2022-12-20T08:04:16.854Z,101040.51
2022-12-20T08:07:44.529Z,101040.92
2022-12-20T08:11:12.287Z,101036.87
2022-12-20T08:14:39.061Z,101042.85
2022-12-20T08:18:06.770Z,101044.48
2022-12-20T08:21:33.999Z,101046.66
2022-12-20T08:25:00.811Z,101047.45
2022-12-20T08:28:27.718Z,101044.53
2022-12-20T08:31:54.563Z,101044.88
2022-12-20T08:35:21.292Z,101046.48
2022-12-20T08:38:48.107Z,101041.00
2022-12-20T08:42:14.943Z,101033.17
2022-12-20T08:45:41.516Z,101031.52
2022-12-20T08:49:08.435Z,101029.35
2022-12-20T08:52:34.980Z,101027.41
2022-12-20T08:56:08.822Z,101024.83
2022-12-20T08:59:35.579Z,101022.81
2022-12-20T09:03:02.398Z,101023.56
2022-12-20T09:06:29.680Z,101016.34
2022-12-20T09:09:56.234Z,101011.75
2022-12-20T09:13:23.005Z,101008.35
2022-12-20T09:16:51.332Z,101006.54
2022-12-20T09:20:18.342Z,101010.52
2022-12-20T09:23:45.288Z,101003.97
2022-12-20T09:27:12.146Z,101007.40
2022-12-20T09:30:39.008Z,101004.88
2022-12-20T09:34:06.140Z,101007.40
2022-12-20T09:37:34.460Z,101005.34
2022-12-20T09:41:04.237Z,101002.95
2022-12-20T09:44:35.599Z,100997.77
2022-12-20T09:48:02.665Z,100982.29
2022-12-20T09:51:49.913Z,100985.92
2022-12-20T09:55:25.811Z,100991.95
2022-12-20T09:59:01.962Z,100990.83
2022-12-20T10:06:27.306Z,101014.16
2022-12-20T10:10:11.667Z,101017.65
2022-12-20T10:14:01.349Z,101009.30
2022-12-20T10:17:32.740Z,101004.16
2022-12-20T10:21:09.093Z,101004.00
2022-12-20T10:24:37.247Z,100999.09
2022-12-20T10:28:12.266Z,100999.57
2022-12-20T10:31:40.236Z,100998.55
2022-12-20T10:35:23.156Z,101003.13
2022-12-20T10:38:51.647Z,101004.97
2022-12-20T10:42:36.055Z,100997.42
2022-12-20T10:46:05.824Z,100990.71
2022-12-20T10:49:32.236Z,100990.13
2022-12-20T10:53:25.537Z,100983.67
2022-12-20T10:56:58.943Z,100982.67
2022-12-20T11:00:33.701Z,100968.64
2022-12-20T11:04:03.713Z,100968.03
2022-12-20T11:07:32.977Z,100975.05
2022-12-20T11:11:16.393Z,100973.04
2022-12-20T11:14:45.159Z,100976.88
2022-12-20T11:18:20.425Z,100970.70
2022-12-20T11:21:55.998Z,100957.25
2022-12-20T11:25:37.878Z,100944.23
2022-12-20T11:29:21.717Z,100943.41
2022-12-20T11:33:12.183Z,100934.42
2022-12-20T11:36:55.663Z,100933.27
2022-12-20T11:40:33.896Z,100922.73
2022-12-20T11:44:25.222Z,100914.89
2022-12-20T11:48:06.921Z,100913.84
2022-12-20T11:51:46.558Z,100910.73
2022-12-20T11:55:21.465Z,100901.67
2022-12-20T11:58:57.596Z,100903.77
2022-12-20T12:02:31.215Z,100911.40
2022-12-20T12:06:02.220Z,100911.84
2022-12-20T12:09:34.837Z,100907.53
2022-12-20T12:13:09.355Z,100912.86
2022-12-20T12:16:40.393Z,100908.09
2022-12-20T12:20:23.400Z,100900.21
2022-12-20T12:24:02.831Z,100895.13
2022-12-20T12:27:30.967Z,100899.83
2022-12-20T12:31:04.791Z,100901.45
2022-12-20T12:34:47.902Z,100886.27
2022-12-20T12:38:40.549Z,100878.27
2022-12-20T12:42:25.210Z,100869.23
2022-12-20T12:45:57.470Z,100864.83
2022-12-20T12:49:28.734Z,100868.82
2022-12-20T12:52:58.425Z,100856.38
2022-12-20T12:56:49.131Z,100852.97
2022-12-20T13:00:53.958Z,100850.12
2022-12-20T13:04:30.171Z,100852.52
2022-12-20T13:07:57.060Z,100852.83
2022-12-20T13:11:34.453Z,100849.70
2022-12-20T13:15:01.613Z,100850.85
2022-12-20T13:18:31.850Z,100847.33
2022-12-20T13:22:14.986Z,100860.80
2022-12-20T13:25:44.655Z,100861.71
2022-12-20T13:29:24.356Z,100856.48
2022-12-20T13:33:23.619Z,100847.35
2022-12-20T13:37:00.425Z,100841.31
2022-12-20T13:40:36.767Z,100838.46
2022-12-20T13:44:18.140Z,100833.18
2022-12-20T13:47:50.776Z,100843.61
2022-12-20T13:51:21.880Z,100840.44
2022-12-20T13:54:52.394Z,100829.48
2022-12-20T13:58:23.895Z,100822.88
2022-12-20T14:01:54.086Z,100825.99
2022-12-20T14:05:26.635Z,100819.73
2022-12-20T14:08:55.224Z,100816.46
2022-12-20T14:12:28.541Z,100820.96
2022-12-20T14:15:57.491Z,100823.90
2022-12-20T14:19:24.491Z,100818.39
2022-12-20T14:23:04.637Z,100823.39
2022-12-20T14:26:37.637Z,100826.83
2022-12-20T14:30:05.027Z,100827.11
2022-12-20T14:33:37.551Z,100807.80
2022-12-20T14:37:29.129Z,100794.55
2022-12-20T14:40:56.427Z,100797.89
2022-12-20T14:44:27.265Z,100789.47
2022-12-20T14:48:07.465Z,100785.95
2022-12-20T14:51:35.181Z,100788.16
2022-12-20T14:55:09.978Z,100789.84
2022-12-20T14:58:37.687Z,100788.41
2022-12-20T15:02:34.517Z,100801.00
2022-12-20T15:06:02.298Z,100793.89
2022-12-20T15:09:29.267Z,100788.48
2022-12-20T15:12:56.182Z,100787.19
2022-12-20T15:16:24.984Z,100786.61
2022-12-20T15:19:52.228Z,100792.26
2022-12-20T15:23:21.354Z,100793.39
2022-12-20T15:26:49.171Z,100796.90
2022-12-20T15:30:17.227Z,100790.70
2022-12-20T15:33:45.770Z,100788.17
2022-12-20T15:37:18.699Z,100776.81
2022-12-20T15:40:47.781Z,100776.43
2022-12-20T15:44:18.718Z,100780.83
2022-12-20T15:47:45.792Z,100775.20
2022-12-20T15:51:29.022Z,100770.34
2022-12-20T15:54:55.939Z,100767.73
2022-12-20T15:58:23.660Z,100769.26
2022-12-20T16:01:50.640Z,100771.64
2022-12-20T16:05:17.825Z,100772.02
2022-12-20T16:08:44.921Z,100777.52
2022-12-20T16:12:17.736Z,100772.67
2022-12-20T16:15:45.048Z,100777.85
2022-12-20T16:19:12.716Z,100776.46
2022-12-20T16:22:40.377Z,100771.80
2022-12-20T16:26:08.996Z,100763.86
2022-12-20T16:29:35.948Z,100750.71
2022-12-20T16:33:02.878Z,100743.07
2022-12-20T16:36:30.321Z,100741.38
2022-12-20T16:39:58.017Z,100750.71
2022-12-20T16:43:25.776Z,100756.45
2022-12-20T16:46:52.657Z,100749.21
2022-12-20T16:50:20.573Z,100741.84
2022-12-20T16:54:17.497Z,100741.42
2022-12-20T16:57:34.856Z,100739.98
2022-12-20T17:01:01.806Z,100735.06
2022-12-20T17:04:28.971Z,100726.35
2022-12-20T17:07:56.346Z,100731.48
2022-12-20T17:11:25.567Z,100726.77
2022-12-20T17:14:52.789Z,100718.95
2022-12-20T17:18:19.605Z,100722.00
2022-12-20T17:25:37.026Z,100721.84
2022-12-20T17:29:05.109Z,100718.70
2022-12-20T17:32:32.050Z,100721.21
2022-12-20T17:35:59.204Z,100720.27
2022-12-20T17:39:27.115Z,100706.41
2022-12-20T17:42:54.462Z,100704.20
2022-12-20T17:46:22.013Z,100705.32
2022-12-20T17:49:48.934Z,100714.34
2022-12-20T17:53:15.850Z,100712.48
2022-12-20T17:56:43.129Z,100700.25
2022-12-20T18:00:20.033Z,100696.35
2022-12-20T18:04:03.737Z,100700.26
2022-12-20T18:07:31.647Z,100692.48
2022-12-20T18:11:00.419Z,100699.54
2022-12-20T18:14:27.259Z,100687.77
2022-12-20T18:17:54.164Z,100688.41
2022-12-20T18:21:22.670Z,100686.92
2022-12-20T18:24:49.573Z,100680.03
2022-12-20T18:28:16.453Z,100681.06
2022-12-20T18:31:43.407Z,100677.27
2022-12-20T18:35:12.494Z,100678.31
2022-12-20T18:38:41.522Z,100678.41
2022-12-20T18:42:08.739Z,100676.99
2022-12-20T18:45:36.915Z,100674.00
2022-12-20T18:49:04.707Z,100664.15
2022-12-20T18:52:32.288Z,100657.25
2022-12-20T18:56:01.912Z,100658.52
2022-12-20T18:59:30.595Z,100652.08
2022-12-20T19:02:59.624Z,100648.69
2022-12-20T19:06:27.243Z,100639.74
2022-12-20T19:09:54.247Z,100627.64
2022-12-20T19:13:21.782Z,100622.29
2022-12-20T19:16:50.218Z,100622.98
2022-12-20T19:20:17.314Z,100632.52
2022-12-20T19:23:46.154Z,100638.27
2022-12-20T19:27:12.971Z,100630.22
2022-12-20T19:30:39.936Z,100634.11
2022-12-20T19:34:09.736Z,100650.84
2022-12-20T19:37:37.617Z,100638.52
2022-12-20T19:41:04.842Z,100635.48
2022-12-20T19:44:31.684Z,100653.34
2022-12-20T19:47:58.662Z,100654.10
2022-12-20T19:51:26.299Z,100656.23
2022-12-20T19:54:53.232Z,100658.38
2022-12-20T19:58:20.293Z,100652.58
2022-12-20T20:01:47.435Z,100644.85
2022-12-20T20:05:15.413Z,100648.81
2022-12-20T20:08:43.090Z,100643.36
2022-12-20T20:12:10.326Z,100639.75
2022-12-20T20:15:37.532Z,100627.67
2022-12-20T20:19:05.614Z,100646.16
2022-12-20T20:22:32.684Z,100653.30
2022-12-20T20:26:00.121Z,100644.30
2022-12-20T20:29:27.119Z,100637.69
2022-12-20T20:32:54.117Z,100642.13
2022-12-20T20:36:23.339Z,100638.46
2022-12-20T20:39:50.309Z,100627.84
2022-12-20T20:43:17.372Z,100622.27
2022-12-20T20:46:46.475Z,100622.86
2022-12-20T20:50:14.205Z,100637.05
2022-12-20T20:53:41.806Z,100629.19
2022-12-20T20:57:08.694Z,100624.41
2022-12-20T21:00:36.182Z,100615.56
2022-12-20T21:04:03.367Z,100619.76
2022-12-20T21:07:30.534Z,100632.05
2022-12-20T21:10:57.533Z,100642.52
2022-12-20T21:14:43.785Z,100633.30
2022-12-20T21:18:11.535Z,100625.45
2022-12-20T21:21:38.559Z,100622.98
2022-12-20T21:25:06.839Z,100619.30
2022-12-20T21:28:33.925Z,100604.39
2022-12-20T21:32:00.872Z,100597.66
2022-12-20T21:35:28.681Z,100596.85
2022-12-20T21:38:57.236Z,100586.73
2022-12-20T21:42:24.423Z,100576.70
2022-12-20T21:45:53.736Z,100571.13
2022-12-20T21:49:20.701Z,100574.60
2022-12-20T21:52:47.808Z,100575.86
2022-12-20T21:56:15.623Z,100567.50
2022-12-20T21:59:42.584Z,100565.48
2022-12-20T22:03:09.580Z,100567.09
2022-12-20T22:06:36.819Z,100568.46
2022-12-20T22:10:03.758Z,100559.23
2022-12-20T22:13:35.723Z,100569.80
2022-12-20T22:17:07.444Z,100570.36
2022-12-20T22:20:35.161Z,100548.25
2022-12-20T22:24:03.669Z,100550.46
2022-12-20T22:27:30.578Z,100569.40
2022-12-20T22:30:57.667Z,100572.95
2022-12-20T22:34:25.518Z,100576.08
2022-12-20T22:37:52.978Z,100571.36
2022-12-20T22:41:22.561Z,100559.64
2022-12-20T22:44:49.442Z,100543.96
2022-12-20T22:48:16.294Z,100531.61
2022-12-20T22:51:43.296Z,100529.16
2022-12-20T22:55:11.467Z,100540.52
2022-12-20T22:58:39.503Z,100536.89
2022-12-20T23:02:06.685Z,100541.14
2022-12-20T23:05:33.888Z,100543.08
2022-12-20T23:09:00.921Z,100538.59
2022-12-20T23:12:45.572Z,100534.21
2022-12-20T23:16:14.204Z,100529.91
2022-12-20T23:19:58.686Z,100538.80
2022-12-20T23:23:26.086Z,100524.27
2022-12-20T23:26:53.008Z,100518.44
2022-12-20T23:30:22.717Z,100515.73
2022-12-20T23:33:49.794Z,100510.29
2022-12-20T23:37:16.753Z,100517.83
2022-12-20T23:40:44.693Z,100514.05
2022-12-20T23:44:11.667Z,100509.30
2022-12-20T23:47:38.566Z,100505.02
2022-12-20T23:51:07.195Z,100503.30
2022-12-20T23:54:34.319Z,100511.54
2022-12-20T23:58:01.508Z,100521.02
